sensor_id;sensor_type;location;lat;lon;timestamp;pressure;altitude;pressure_sealevel;temperature;humidity
31357;BME280;60001;48.404;11.738;2023-01-29T00:01:06;97201.84;;;0.78;79.97
31357;BME280;60001;48.404;11.738;2023-01-29T00:02:37;97209.66;;;0.78;80.01
31357;BME280;60001;48.404;11.738;2023-01-29T00:04:09;97223.78;;;0.75;80.02
31357;BME280;60001;48.404;11.738;2023-01-29T00:05:41;97214.50;;;0.81;80.06
31357;BME280;60001;48.404;11.738;2023-01-29T00:07:13;97207.03;;;0.86;79.59
31357;BME280;60001;48.404;11.738;2023-01-29T00:08:45;97205.41;;;0.85;80.44
31357;BME280;60001;48.404;11.738;2023-01-29T00:10:17;97208.78;;;0.94;79.65
31357;BME280;60001;48.404;11.738;2023-01-29T00:11:49;97212.81;;;0.96;80.57
31357;BME280;60001;48.404;11.738;2023-01-29T00:13:21;97209.91;;;0.99;79.82
31357;BME280;60001;48.404;11.738;2023-01-29T00:14:53;97208.28;;;0.98;80.22
31357;BME280;60001;48.404;11.738;2023-01-29T00:16:27;97210.34;;;1.03;79.76
31357;BME280;60001;48.404;11.738;2023-01-29T00:17:58;97219.63;;;1.05;79.55
31357;BME280;60001;48.404;11.738;2023-01-29T00:19:30;97225.81;;;1.04;80.08
31357;BME280;60001;48.404;11.738;2023-01-29T00:21:02;97213.63;;;0.97;79.95
31357;BME280;60001;48.404;11.738;2023-01-29T00:22:34;97219.28;;;1.08;79.88
31357;BME280;60001;48.404;11.738;2023-01-29T00:24:06;97217.03;;;1.05;79.93
31357;BME280;60001;48.404;11.738;2023-01-29T00:25:38;97217.03;;;1.05;80.18
31357;BME280;60001;48.404;11.738;2023-01-29T00:27:10;97221.44;;;1.05;79.56
31357;BME280;60001;48.404;11.738;2023-01-29T00:28:42;97213.94;;;1.02;79.31
31357;BME280;60001;48.404;11.738;2023-01-29T00:30:14;97220.94;;;1.01;79.99
31357;BME280;60001;48.404;11.738;2023-01-29T00:31:51;97218.50;;;1.00;79.17
31357;BME280;60001;48.404;11.738;2023-01-29T00:33:23;97220.13;;;1.01;79.40
31357;BME280;60001;48.404;11.738;2023-01-29T00:34:55;97221.13;;;1.00;79.32
31357;BME280;60001;48.404;11.738;2023-01-29T00:36:27;97211.84;;;0.97;78.94
31357;BME280;60001;48.404;11.738;2023-01-29T00:37:59;97212.19;;;0.94;79.57
31357;BME280;60001;48.404;11.738;2023-01-29T00:39:30;97211.88;;;0.89;79.74
31357;BME280;60001;48.404;11.738;2023-01-29T00:41:09;97206.72;;;0.81;79.83
31357;BME280;60001;48.404;11.738;2023-01-29T00:42:59;97219.22;;;0.86;79.79
31357;BME280;60001;48.404;11.738;2023-01-29T00:44:48;97210.25;;;0.88;80.20
31357;BME280;60001;48.404;11.738;2023-01-29T00:46:31;97204.75;;;0.91;79.95
31357;BME280;60001;48.404;11.738;2023-01-29T00:48:03;97200.81;;;0.95;79.75
31357;BME280;60001;48.404;11.738;2023-01-29T00:49:35;97201.44;;;0.97;79.26
31357;BME280;60001;48.404;11.738;2023-01-29T00:51:09;97202.78;;;0.93;79.37
31357;BME280;60001;48.404;11.738;2023-01-29T00:52:41;97197.56;;;0.93;79.71
31357;BME280;60001;48.404;11.738;2023-01-29T00:54:13;97201.78;;;0.94;79.42
31357;BME280;60001;48.404;11.738;2023-01-29T00:55:45;97199.81;;;0.96;79.76
31357;BME280;60001;48.404;11.738;2023-01-29T00:57:16;97200.81;;;0.95;78.97
31357;BME280;60001;48.404;11.738;2023-01-29T00:58:47;97201.44;;;0.97;79.12
31357;BME280;60001;48.404;11.738;2023-01-29T01:00:19;97200.63;;;0.97;79.76
31357;BME280;60001;48.404;11.738;2023-01-29T01:01:53;97203.53;;;1.02;79.42
31357;BME280;60001;48.404;11.738;2023-01-29T01:03:47;97203.38;;;1.03;79.54
31357;BME280;60001;48.404;11.738;2023-01-29T01:05:18;97198.97;;;1.04;79.11
31357;BME280;60001;48.404;11.738;2023-01-29T01:06:50;97203.38;;;1.03;79.21
31357;BME280;60001;48.404;11.738;2023-01-29T01:08:22;97207.75;;;1.03;79.00
31357;BME280;60001;48.404;11.738;2023-01-29T01:10:14;97218.16;;;1.03;78.46
31357;BME280;60001;48.404;11.738;2023-01-29T01:11:53;97214.75;;;1.02;78.48
31357;BME280;60001;48.404;11.738;2023-01-29T01:13:24;97205.69;;;0.98;78.55
31357;BME280;60001;48.404;11.738;2023-01-29T01:14:56;97213.31;;;1.00;78.79
31357;BME280;60001;48.404;11.738;2023-01-29T01:16:27;97209.38;;;1.04;78.88
31357;BME280;60001;48.404;11.738;2023-01-29T01:18:01;97207.75;;;1.03;79.18
31357;BME280;60001;48.404;11.738;2023-01-29T01:19:33;97211.34;;;1.02;78.50
31357;BME280;60001;48.404;11.738;2023-01-29T01:21:05;97220.44;;;1.06;78.55
31357;BME280;60001;48.404;11.738;2023-01-29T01:22:36;97208.75;;;1.02;78.78
31357;BME280;60001;48.404;11.738;2023-01-29T01:24:08;97218.66;;;1.06;78.94
31357;BME280;60001;48.404;11.738;2023-01-29T01:25:40;97212.81;;;1.04;78.38
31357;BME280;60001;48.404;11.738;2023-01-29T01:27:12;97219.47;;;1.07;78.55
31357;BME280;60001;48.404;11.738;2023-01-29T01:28:44;97228.88;;;1.08;78.45
31357;BME280;60001;48.404;11.738;2023-01-29T01:30:16;97223.50;;;1.09;78.42
31357;BME280;60001;48.404;11.738;2023-01-29T01:31:46;97221.06;;;1.08;79.12
31357;BME280;60001;48.404;11.738;2023-01-29T01:33:20;97219.09;;;1.10;79.19
31357;BME280;60001;48.404;11.738;2023-01-29T01:34:51;97213.91;;;1.10;78.50
31357;BME280;60001;48.404;11.738;2023-01-29T01:36:22;97223.19;;;1.13;78.54
31357;BME280;60001;48.404;11.738;2023-01-29T01:37:54;97222.38;;;1.12;78.50
31357;BME280;60001;48.404;11.738;2023-01-29T01:39:26;97218.28;;;1.09;77.96
31357;BME280;60001;48.404;11.738;2023-01-29T01:40:58;97212.78;;;1.13;78.39
31357;BME280;60001;48.404;11.738;2023-01-29T01:42:30;97212.59;;;1.14;78.84
31357;BME280;60001;48.404;11.738;2023-01-29T01:44:03;97219.59;;;1.14;78.57
31357;BME280;60001;48.404;11.738;2023-01-29T01:45:36;97219.59;;;1.14;78.01
31357;BME280;60001;48.404;11.738;2023-01-29T01:47:08;97210.66;;;1.08;78.35
31357;BME280;60001;48.404;11.738;2023-01-29T01:48:40;97205.13;;;1.11;77.96
31357;BME280;60001;48.404;11.738;2023-01-29T01:50:16;97211.97;;;1.12;78.43
31357;BME280;60001;48.404;11.738;2023-01-29T01:51:51;97208.38;;;1.13;77.93
31357;BME280;60001;48.404;11.738;2023-01-29T01:53:28;97212.59;;;1.14;77.83
31357;BME280;60001;48.404;11.738;2023-01-29T01:55:05;97211.78;;;1.14;77.52
31357;BME280;60001;48.404;11.738;2023-01-29T01:56:42;97208.38;;;1.13;77.83
31357;BME280;60001;48.404;11.738;2023-01-29T01:58:22;97205.78;;;1.13;77.75
31357;BME280;60001;48.404;11.738;2023-01-29T01:59:59;97206.09;;;1.10;77.49
31357;BME280;60001;48.404;11.738;2023-01-29T02:01:42;97208.06;;;1.08;77.25
31357;BME280;60001;48.404;11.738;2023-01-29T02:03:22;97216.38;;;1.03;76.57
31357;BME280;60001;48.404;11.738;2023-01-29T02:05:14;97207.00;;;0.94;76.84
31357;BME280;60001;48.404;11.738;2023-01-29T02:07:07;97209.09;;;0.99;76.28
31357;BME280;60001;48.404;11.738;2023-01-29T02:09:03;97200.34;;;0.92;77.12
31357;BME280;60001;48.404;11.738;2023-01-29T02:10:54;97208.91;;;1.00;77.10
31357;BME280;60001;48.404;11.738;2023-01-29T02:12:26;97210.88;;;0.98;77.05
31357;BME280;60001;48.404;11.738;2023-01-29T02:14:00;97210.88;;;0.98;76.82
31357;BME280;60001;48.404;11.738;2023-01-29T02:15:33;97208.28;;;0.98;77.02
31357;BME280;60001;48.404;11.738;2023-01-29T02:17:04;97200.00;;;0.95;76.92
31357;BME280;60001;48.404;11.738;2023-01-29T02:18:36;97201.44;;;0.97;76.49
31357;BME280;60001;48.404;11.738;2023-01-29T02:20:19;97201.44;;;0.97;76.55
31357;BME280;60001;48.404;11.738;2023-01-29T02:22:06;97197.88;;;0.98;76.71
31357;BME280;60001;48.404;11.738;2023-01-29T02:24:16;97204.34;;;1.02;76.70
31357;BME280;60001;48.404;11.738;2023-01-29T02:26:11;97195.16;;;0.92;76.24
31357;BME280;60001;48.404;11.738;2023-01-29T02:28:10;97204.19;;;1.04;76.54
31357;BME280;60001;48.404;11.738;2023-01-29T02:29:59;97197.66;;;1.08;75.71
31357;BME280;60001;48.404;11.738;2023-01-29T02:31:40;97199.47;;;1.07;75.16
31357;BME280;60001;48.404;11.738;2023-01-29T02:33:28;97193.78;;;1.04;75.43
31357;BME280;60001;48.404;11.738;2023-01-29T02:35:10;97204.47;;;1.09;75.20
31357;BME280;60001;48.404;11.738;2023-01-29T02:37:08;97187.25;;;1.08;74.72
31357;BME280;60001;48.404;11.738;2023-01-29T02:38:49;97188.25;;;1.07;74.30
31357;BME280;60001;48.404;11.738;2023-01-29T02:40:29;97189.41;;;1.04;74.29
31357;BME280;60001;48.404;11.738;2023-01-29T02:42:11;97190.38;;;1.03;74.14
31357;BME280;60001;48.404;11.738;2023-01-29T02:43:54;97186.50;;;0.99;73.49
31357;BME280;60001;48.404;11.738;2023-01-29T02:45:38;97189.56;;;1.03;73.92
31357;BME280;60001;48.404;11.738;2023-01-29T02:47:18;97188.56;;;1.04;74.23
31357;BME280;60001;48.404;11.738;2023-01-29T02:48:57;97184.03;;;1.06;73.74
31357;BME280;60001;48.404;11.738;2023-01-29T02:50:36;97185.47;;;1.08;73.83
31357;BME280;60001;48.404;11.738;2023-01-29T02:52:18;97185.16;;;1.12;73.72
31357;BME280;60001;48.404;11.738;2023-01-29T02:54:00;97176.84;;;1.08;74.37
31357;BME280;60001;48.404;11.738;2023-01-29T02:55:39;97178.47;;;1.09;73.91
31357;BME280;60001;48.404;11.738;2023-01-29T02:57:18;97184.97;;;1.13;73.72
31357;BME280;60001;48.404;11.738;2023-01-29T02:59:00;97190.81;;;1.15;73.96
31357;BME280;60001;48.404;11.738;2023-01-29T03:00:37;97195.19;;;1.15;73.61
31357;BME280;60001;48.404;11.738;2023-01-29T03:02:16;97200.22;;;1.16;74.06
31357;BME280;60001;48.404;11.738;2023-01-29T03:03:54;97191.44;;;1.17;73.62
31357;BME280;60001;48.404;11.738;2023-01-29T03:05:36;97196.50;;;1.19;73.99
31357;BME280;60001;48.404;11.738;2023-01-29T03:07:17;97201.84;;;1.17;73.61
31357;BME280;60001;48.404;11.738;2023-01-29T03:09:18;97194.84;;;1.18;73.33
31357;BME280;60001;48.404;11.738;2023-01-29T03:10:55;97195.03;;;1.16;73.70
31357;BME280;60001;48.404;11.738;2023-01-29T03:12:34;97200.84;;;1.18;73.48
31357;BME280;60001;48.404;11.738;2023-01-29T03:14:15;97202.03;;;1.16;72.89
31357;BME280;60001;48.404;11.738;2023-01-29T03:15:53;97204.19;;;1.04;71.90
31357;BME280;60001;48.404;11.738;2023-01-29T03:17:37;97206.94;;;1.02;71.94
31357;BME280;60001;48.404;11.738;2023-01-29T03:19:16;97207.16;;;0.93;71.96
31357;BME280;60001;48.404;11.738;2023-01-29T03:20:53;97204.56;;;0.93;72.19
31357;BME280;60001;48.404;11.738;2023-01-29T03:22:30;97205.53;;;0.92;71.30
31357;BME280;60001;48.404;11.738;2023-01-29T03:24:07;97197.44;;;0.87;72.00
31357;BME280;60001;48.404;11.738;2023-01-29T03:25:58;97204.03;;;0.97;72.18
31357;BME280;60001;48.404;11.738;2023-01-29T03:27:52;97203.91;;;0.99;71.86
31357;BME280;60001;48.404;11.738;2023-01-29T03:29:47;97201.13;;;1.00;72.43
31357;BME280;60001;48.404;11.738;2023-01-29T03:31:39;97195.75;;;1.02;72.16
31357;BME280;60001;48.404;11.738;2023-01-29T03:33:31;97197.53;;;1.01;71.84
31357;BME280;60001;48.404;11.738;2023-01-29T03:35:10;97202.56;;;1.03;71.78
31357;BME280;60001;48.404;11.738;2023-01-29T03:36:50;97192.16;;;1.03;71.78
31357;BME280;60001;48.404;11.738;2023-01-29T03:38:28;97188.25;;;1.07;72.23
31357;BME280;60001;48.404;11.738;2023-01-29T03:40:03;97187.09;;;1.09;71.95
31357;BME280;60001;48.404;11.738;2023-01-29T03:41:41;97179.94;;;1.12;72.49
31357;BME280;60001;48.404;11.738;2023-01-29T03:43:28;97176.50;;;1.11;71.85
31357;BME280;60001;48.404;11.738;2023-01-29T03:45:13;97177.50;;;1.10;71.57
31357;BME280;60001;48.404;11.738;2023-01-29T03:46:54;97172.94;;;1.12;72.36
31357;BME280;60001;48.404;11.738;2023-01-29T03:48:32;97174.56;;;1.13;71.94
31357;BME280;60001;48.404;11.738;2023-01-29T03:50:11;97165.97;;;1.13;72.42
31357;BME280;60001;48.404;11.738;2023-01-29T03:51:55;97173.41;;;1.16;72.14
31357;BME280;60001;48.404;11.738;2023-01-29T03:53:39;97174.84;;;1.18;72.11
31357;BME280;60001;48.404;11.738;2023-01-29T03:55:17;97179.09;;;1.19;72.65
31357;BME280;60001;48.404;11.738;2023-01-29T03:56:59;97177.28;;;1.20;72.63
31357;BME280;60001;48.404;11.738;2023-01-29T03:58:38;97159.94;;;1.12;72.65
31357;BME280;60001;48.404;11.738;2023-01-29T04:00:17;97179.59;;;1.15;72.54
31357;BME280;60001;48.404;11.738;2023-01-29T04:01:54;97177.97;;;1.14;72.20
31357;BME280;60001;48.404;11.738;2023-01-29T04:03:33;97186.28;;;1.09;72.89
31357;BME280;60001;48.404;11.738;2023-01-29T04:05:16;97185.16;;;1.03;72.22
31357;BME280;60001;48.404;11.738;2023-01-29T04:06:54;97179.81;;;0.97;72.51
31357;BME280;60001;48.404;11.738;2023-01-29T04:08:31;97191.53;;;1.01;73.02
31357;BME280;60001;48.404;11.738;2023-01-29T04:10:10;97191.34;;;1.02;73.24
31357;BME280;60001;48.404;11.738;2023-01-29T04:11:48;97183.72;;;1.01;73.13
31357;BME280;60001;48.404;11.738;2023-01-29T04:13:23;97189.91;;;1.00;73.56
31357;BME280;60001;48.404;11.738;2023-01-29T04:15:00;97174.97;;;0.94;73.45
31357;BME280;60001;48.404;11.738;2023-01-29T04:16:38;97184.41;;;0.95;72.98
31357;BME280;60001;48.404;11.738;2023-01-29T04:18:11;97192.69;;;0.98;73.48
31357;BME280;60001;48.404;11.738;2023-01-29T04:19:43;97188.63;;;0.96;73.11
31357;BME280;60001;48.404;11.738;2023-01-29T04:21:18;97187.81;;;0.95;73.09
31357;BME280;60001;48.404;11.738;2023-01-29T04:22:50;97181.66;;;0.88;73.45
31357;BME280;60001;48.404;11.738;2023-01-29T04:24:21;97180.69;;;0.89;72.37
31357;BME280;60001;48.404;11.738;2023-01-29T04:26:11;97194.00;;;0.94;72.84
31357;BME280;60001;48.404;11.738;2023-01-29T04:27:58;97193.19;;;0.94;73.49
31357;BME280;60001;48.404;11.738;2023-01-29T04:29:45;97190.22;;;0.97;72.99
31357;BME280;60001;48.404;11.738;2023-01-29T04:31:24;97191.69;;;0.99;72.76
31357;BME280;60001;48.404;11.738;2023-01-29T04:33:15;97194.13;;;1.01;72.83
31357;BME280;60001;48.404;11.738;2023-01-29T04:34:59;97189.41;;;1.04;73.11
31357;BME280;60001;48.404;11.738;2023-01-29T04:36:35;97180.63;;;1.05;73.39
31357;BME280;60001;48.404;11.738;2023-01-29T04:38:14;97176.91;;;1.00;73.45
31357;BME280;60001;48.404;11.738;2023-01-29T04:39:50;97177.53;;;1.02;72.73
31357;BME280;60001;48.404;11.738;2023-01-29T04:41:32;97188.25;;;1.07;72.81
31357;BME280;60001;48.404;11.738;2023-01-29T04:43:08;97181.44;;;1.06;72.53
31357;BME280;60001;48.404;11.738;2023-01-29T04:44:49;97189.06;;;1.07;73.31
31357;BME280;60001;48.404;11.738;2023-01-29T04:46:34;97189.22;;;1.06;73.19
31357;BME280;60001;48.404;11.738;2023-01-29T04:48:22;97188.88;;;1.09;73.20
31357;BME280;60001;48.404;11.738;2023-01-29T04:50:04;97177.03;;;1.06;73.10
31357;BME280;60001;48.404;11.738;2023-01-29T04:51:48;97185.47;;;1.08;73.51
31357;BME280;60001;48.404;11.738;2023-01-29T04:53:27;97187.25;;;1.08;73.01
31357;BME280;60001;48.404;11.738;2023-01-29T04:55:08;97181.59;;;1.04;73.16
31357;BME280;60001;48.404;11.738;2023-01-29T04:56:52;97195.06;;;1.08;72.74
31357;BME280;60001;48.404;11.738;2023-01-29T04:58:33;97186.97;;;1.03;73.05
31357;BME280;60001;48.404;11.738;2023-01-29T05:00:13;97183.03;;;1.07;73.36
31357;BME280;60001;48.404;11.738;2023-01-29T05:01:47;97178.16;;;1.04;73.06
31357;BME280;60001;48.404;11.738;2023-01-29T05:03:25;97182.56;;;1.03;72.72
31357;BME280;60001;48.404;11.738;2023-01-29T05:04:58;97190.22;;;1.05;73.24
31357;BME280;60001;48.404;11.738;2023-01-29T05:06:31;97182.41;;;1.05;73.46
31357;BME280;60001;48.404;11.738;2023-01-29T05:08:04;97192.00;;;1.04;72.65
31357;BME280;60001;48.404;11.738;2023-01-29T05:09:37;97187.75;;;1.03;73.33
31357;BME280;60001;48.404;11.738;2023-01-29T05:11:10;97195.75;;;1.02;73.07
31357;BME280;60001;48.404;11.738;2023-01-29T05:12:55;97200.47;;;0.98;72.33
31357;BME280;60001;48.404;11.738;2023-01-29T05:14:32;97202.41;;;0.96;72.51
31357;BME280;60001;48.404;11.738;2023-01-29T05:16:08;97199.69;;;0.90;72.16
31357;BME280;60001;48.404;11.738;2023-01-29T05:17:44;97208.59;;;0.95;72.33
31357;BME280;60001;48.404;11.738;2023-01-29T05:19:17;97211.03;;;0.97;72.38
31357;BME280;60001;48.404;11.738;2023-01-29T05:20:49;97211.69;;;0.99;73.00
31357;BME280;60001;48.404;11.738;2023-01-29T05:22:21;97203.72;;;1.00;72.22
31357;BME280;60001;48.404;11.738;2023-01-29T05:24:08;97211.34;;;1.02;72.33
31357;BME280;60001;48.404;11.738;2023-01-29T05:25:38;97212.97;;;1.03;72.69
31357;BME280;60001;48.404;11.738;2023-01-29T05:27:17;97213.78;;;1.03;72.03
31357;BME280;60001;48.404;11.738;2023-01-29T05:29:07;97220.13;;;1.01;72.08
31357;BME280;60001;48.404;11.738;2023-01-29T05:30:39;97196.41;;;0.96;71.89
31357;BME280;60001;48.404;11.738;2023-01-29T05:32:11;97213.94;;;1.02;72.28
31357;BME280;60001;48.404;11.738;2023-01-29T05:33:43;97212.31;;;1.01;72.08
31357;BME280;60001;48.404;11.738;2023-01-29T05:35:16;97207.78;;;0.95;72.41
31357;BME280;60001;48.404;11.738;2023-01-29T05:36:48;97216.09;;;0.98;71.98
31357;BME280;60001;48.404;11.738;2023-01-29T05:38:21;97210.41;;;0.95;71.46
31357;BME280;60001;48.404;11.738;2023-01-29T05:39:53;97214.81;;;0.86;70.57
31357;BME280;60001;48.404;11.738;2023-01-29T05:41:25;97222.94;;;0.83;70.79
31357;BME280;60001;48.404;11.738;2023-01-29T05:42:57;97216.94;;;0.82;71.05
31357;BME280;60001;48.404;11.738;2023-01-29T05:44:29;97202.84;;;0.77;70.76
31357;BME280;60001;48.404;11.738;2023-01-29T05:46:01;97197.13;;;0.81;70.85
31357;BME280;60001;48.404;11.738;2023-01-29T05:47:32;97206.84;;;0.88;71.26
31357;BME280;60001;48.404;11.738;2023-01-29T05:49:05;97209.81;;;0.85;71.05
31357;BME280;60001;48.404;11.738;2023-01-29T05:50:38;97214.69;;;0.79;70.47
31357;BME280;60001;48.404;11.738;2023-01-29T05:52:10;97213.25;;;0.77;70.45
31357;BME280;60001;48.404;11.738;2023-01-29T05:53:41;97210.97;;;0.74;70.81
31357;BME280;60001;48.404;11.738;2023-01-29T05:55:13;97211.75;;;0.74;70.90
31357;BME280;60001;48.404;11.738;2023-01-29T05:56:45;97210.63;;;0.77;70.77
31357;BME280;60001;48.404;11.738;2023-01-29T05:58:17;97210.63;;;0.77;71.13
31357;BME280;60001;48.404;11.738;2023-01-29T05:59:49;97207.38;;;0.75;71.14
31357;BME280;60001;48.404;11.738;2023-01-29T06:01:23;97200.88;;;0.79;71.32
31357;BME280;60001;48.404;11.738;2023-01-29T06:03:00;97202.16;;;0.83;71.48
31357;BME280;60001;48.404;11.738;2023-01-29T06:04:31;97203.44;;;0.87;70.96
31357;BME280;60001;48.404;11.738;2023-01-29T06:06:05;97204.25;;;0.88;70.63
31357;BME280;60001;48.404;11.738;2023-01-29T06:07:38;97202.28;;;0.90;70.75
31357;BME280;60001;48.404;11.738;2023-01-29T06:09:14;97203.75;;;0.92;70.88
31357;BME280;60001;48.404;11.738;2023-01-29T06:10:46;97206.53;;;0.91;70.76
31357;BME280;60001;48.404;11.738;2023-01-29T06:12:18;97213.34;;;0.92;70.39
31357;BME280;60001;48.404;11.738;2023-01-29T06:13:49;97208.16;;;0.92;70.87
31357;BME280;60001;48.404;11.738;2023-01-29T06:15:20;97209.75;;;0.93;70.71
31357;BME280;60001;48.404;11.738;2023-01-29T06:16:56;97204.38;;;0.94;70.62
31357;BME280;60001;48.404;11.738;2023-01-29T06:18:28;97207.63;;;0.96;71.12
31357;BME280;60001;48.404;11.738;2023-01-29T06:20:00;97206.50;;;0.99;71.12
31357;BME280;60001;48.404;11.738;2023-01-29T06:21:34;97212.69;;;0.98;71.37
31357;BME280;60001;48.404;11.738;2023-01-29T06:23:05;97204.38;;;0.94;70.40
31357;BME280;60001;48.404;11.738;2023-01-29T06:24:37;97209.25;;;0.97;71.01
31357;BME280;60001;48.404;11.738;2023-01-29T06:26:11;97198.84;;;0.97;70.71
31357;BME280;60001;48.404;11.738;2023-01-29T06:27:43;97207.47;;;0.98;71.49
31357;BME280;60001;48.404;11.738;2023-01-29T06:29:15;97206.50;;;0.99;71.33
31357;BME280;60001;48.404;11.738;2023-01-29T06:30:46;97210.72;;;1.00;71.34
31357;BME280;60001;48.404;11.738;2023-01-29T06:32:18;97205.69;;;0.98;71.28
31357;BME280;60001;48.404;11.738;2023-01-29T06:33:50;97203.72;;;1.00;71.25
31357;BME280;60001;48.404;11.738;2023-01-29T06:35:22;97206.16;;;1.02;71.54
31357;BME280;60001;48.404;11.738;2023-01-29T06:36:55;97207.94;;;1.01;71.55
31357;BME280;60001;48.404;11.738;2023-01-29T06:38:27;97211.53;;;1.00;71.10
31357;BME280;60001;48.404;11.738;2023-01-29T06:39:59;97214.56;;;1.04;70.90
31357;BME280;60001;48.404;11.738;2023-01-29T06:41:30;97218.00;;;1.04;70.93
31357;BME280;60001;48.404;11.738;2023-01-29T06:43:02;97222.22;;;1.05;71.16
31357;BME280;60001;48.404;11.738;2023-01-29T06:44:34;97205.16;;;1.03;70.88
31357;BME280;60001;48.404;11.738;2023-01-29T06:46:07;97211.84;;;1.05;71.13
31357;BME280;60001;48.404;11.738;2023-01-29T06:47:39;97211.34;;;1.02;70.69
31357;BME280;60001;48.404;11.738;2023-01-29T06:49:11;97215.56;;;1.03;71.22
31357;BME280;60001;48.404;11.738;2023-01-29T06:50:43;97217.19;;;1.04;70.98
31357;BME280;60001;48.404;11.738;2023-01-29T06:52:16;97219.19;;;0.94;70.69
31357;BME280;60001;48.404;11.738;2023-01-29T06:53:48;97203.13;;;0.82;70.73
31357;BME280;60001;48.404;11.738;2023-01-29T06:55:19;97202.97;;;0.84;71.47
31357;BME280;60001;48.404;11.738;2023-01-29T06:56:51;97209.28;;;0.89;71.61
31357;BME280;60001;48.404;11.738;2023-01-29T06:58:23;97206.84;;;0.88;71.14
31357;BME280;60001;48.404;11.738;2023-01-29T06:59:58;97206.03;;;0.87;71.70
31357;BME280;60001;48.404;11.738;2023-01-29T07:01:29;97202.16;;;0.83;70.96
31357;BME280;60001;48.404;11.738;2023-01-29T07:03:01;97196.50;;;0.79;71.10
31357;BME280;60001;48.404;11.738;2023-01-29T07:04:33;97196.13;;;0.82;71.35
31357;BME280;60001;48.404;11.738;2023-01-29T07:06:07;97181.53;;;0.81;71.43
31357;BME280;60001;48.404;11.738;2023-01-29T07:07:39;97184.13;;;0.81;70.36
31357;BME280;60001;48.404;11.738;2023-01-29T07:09:11;97169.19;;;0.75;70.58
31357;BME280;60001;48.404;11.738;2023-01-29T07:10:43;97176.31;;;0.81;70.76
31357;BME280;60001;48.404;11.738;2023-01-29T07:12:14;97176.97;;;0.84;70.54
31357;BME280;60001;48.404;11.738;2023-01-29T07:13:46;97182.00;;;0.85;70.32
31357;BME280;60001;48.404;11.738;2023-01-29T07:15:16;97181.03;;;0.86;70.01
31357;BME280;60001;48.404;11.738;2023-01-29T07:16:49;97179.88;;;0.89;70.03
31357;BME280;60001;48.404;11.738;2023-01-29T07:18:21;97181.34;;;0.91;70.38
31357;BME280;60001;48.404;11.738;2023-01-29T07:19:53;97187.16;;;0.93;70.39
31357;BME280;60001;48.404;11.738;2023-01-29T07:21:24;97181.78;;;0.95;69.68
31357;BME280;60001;48.404;11.738;2023-01-29T07:22:58;97174.00;;;0.95;70.34
31357;BME280;60001;48.404;11.738;2023-01-29T07:24:29;97171.22;;;0.96;70.15
31357;BME280;60001;48.404;11.738;2023-01-29T07:26:03;97167.63;;;0.97;69.56
31357;BME280;60001;48.404;11.738;2023-01-29T07:27:35;97164.53;;;1.02;70.32
31357;BME280;60001;48.404;11.738;2023-01-29T07:29:06;97167.75;;;1.04;70.51
31357;BME280;60001;48.404;11.738;2023-01-29T07:30:38;97171.84;;;1.06;70.54
31357;BME280;60001;48.404;11.738;2023-01-29T07:32:10;97175.88;;;1.09;70.41
31357;BME280;60001;48.404;11.738;2023-01-29T07:33:42;97172.28;;;1.10;70.11
31357;BME280;60001;48.404;11.738;2023-01-29T07:35:14;97175.56;;;1.12;70.36
31357;BME280;60001;48.404;11.738;2023-01-29T07:36:45;97168.69;;;1.11;69.86
31357;BME280;60001;48.404;11.738;2023-01-29T07:38:19;97174.22;;;1.16;69.98
31357;BME280;60001;48.404;11.738;2023-01-29T07:39:51;97177.63;;;1.17;69.98
31357;BME280;60001;48.404;11.738;2023-01-29T07:41:23;97178.44;;;1.17;69.83
31357;BME280;60001;48.404;11.738;2023-01-29T07:42:57;97170.81;;;1.16;70.31
31357;BME280;60001;48.404;11.738;2023-01-29T07:44:29;97180.53;;;1.22;70.09
31357;BME280;60001;48.404;11.738;2023-01-29T07:46:02;97181.50;;;1.21;69.96
31357;BME280;60001;48.404;11.738;2023-01-29T07:47:34;97180.72;;;1.20;70.22
31357;BME280;60001;48.404;11.738;2023-01-29T07:49:06;97185.72;;;1.22;69.67
31357;BME280;60001;48.404;11.738;2023-01-29T07:50:38;97177.75;;;1.23;69.62
31357;BME280;60001;48.404;11.738;2023-01-29T07:52:10;97167.69;;;1.20;69.85
31357;BME280;60001;48.404;11.738;2023-01-29T07:53:43;97183.09;;;1.30;70.24
31357;BME280;60001;48.404;11.738;2023-01-29T07:55:15;97177.88;;;1.30;70.21
31357;BME280;60001;48.404;11.738;2023-01-29T07:56:47;97184.19;;;1.35;69.81
31357;BME280;60001;48.404;11.738;2023-01-29T07:58:19;97179.16;;;1.34;69.75
31357;BME280;60001;48.404;11.738;2023-01-29T07:59:51;97181.94;;;1.32;69.63
31357;BME280;60001;48.404;11.738;2023-01-29T08:01:23;97186.31;;;1.32;69.97
31357;BME280;60001;48.404;11.738;2023-01-29T08:03:01;97194.13;;;1.32;69.56
31357;BME280;60001;48.404;11.738;2023-01-29T08:04:34;97179.50;;;1.31;69.60
31357;BME280;60001;48.404;11.738;2023-01-29T08:06:06;97189.56;;;1.34;70.10
31357;BME280;60001;48.404;11.738;2023-01-29T08:07:38;97187.78;;;1.34;70.08
31357;BME280;60001;48.404;11.738;2023-01-29T08:09:12;97189.75;;;1.32;69.72
31357;BME280;60001;48.404;11.738;2023-01-29T08:10:44;97190.38;;;1.34;70.26
31357;BME280;60001;48.404;11.738;2023-01-29T08:12:16;97192.44;;;1.39;69.69
31357;BME280;60001;48.404;11.738;2023-01-29T08:13:48;97194.91;;;1.41;69.85
31357;BME280;60001;48.404;11.738;2023-01-29T08:15:22;97200.75;;;1.43;69.77
31357;BME280;60001;48.404;11.738;2023-01-29T08:16:54;97200.75;;;1.43;70.06
31357;BME280;60001;48.404;11.738;2023-01-29T08:18:26;97200.91;;;1.41;69.93
31357;BME280;60001;48.404;11.738;2023-01-29T08:19:58;97196.34;;;1.43;69.75
31357;BME280;60001;48.404;11.738;2023-01-29T08:21:29;97199.94;;;1.42;70.08
31357;BME280;60001;48.404;11.738;2023-01-29T08:23:04;97202.53;;;1.42;70.53
31357;BME280;60001;48.404;11.738;2023-01-29T08:24:37;97209.97;;;1.45;70.39
31357;BME280;60001;48.404;11.738;2023-01-29T08:26:09;97199.44;;;1.47;70.53
31357;BME280;60001;48.404;11.738;2023-01-29T08:27:41;97208.03;;;1.47;70.36
31357;BME280;60001;48.404;11.738;2023-01-29T08:29:12;97200.06;;;1.49;70.32